sensor_id;sensor_type;location;lat;lon;timestamp;P1;durP1;ratioP1;P2;durP2;ratioP2
64799;SDS011;51233;51.982;4.594;2023-08-06T00:02:35;4.53;;;3.35;;
64799;SDS011;51233;51.982;4.594;2023-08-06T00:05:41;2.90;;;2.70;;
64799;SDS011;51233;51.982;4.594;2023-08-06T00:08:41;4.82;;;3.03;;
64799;SDS011;51233;51.982;4.594;2023-08-06T00:11:41;2.80;;;2.60;;
64799;SDS011;51233;51.982;4.594;2023-08-06T00:14:43;3.60;;;3.30;;
64799;SDS011;51233;51.982;4.594;2023-08-06T00:17:44;3.50;;;3.20;;
64799;SDS011;51233;51.982;4.594;2023-08-06T00:20:44;2.10;;;1.90;;
64799;SDS011;51233;51.982;4.594;2023-08-06T00:23:44;5.53;;;3.42;;
64799;SDS011;51233;51.982;4.594;2023-08-06T00:26:44;2.87;;;2.67;;
64799;SDS011;51233;51.982;4.594;2023-08-06T00:29:44;4.37;;;3.07;;
64799;SDS011;51233;51.982;4.594;2023-08-06T00:32:45;2.53;;;2.33;;
64799;SDS011;51233;51.982;4.594;2023-08-06T00:35:45;2.90;;;2.70;;
64799;SDS011;51233;51.982;4.594;2023-08-06T00:38:46;2.80;;;2.60;;
64799;SDS011;51233;51.982;4.594;2023-08-06T00:41:46;3.10;;;2.80;;
64799;SDS011;51233;51.982;4.594;2023-08-06T00:44:47;3.47;;;3.17;;
64799;SDS011;51233;51.982;4.594;2023-08-06T00:47:47;2.97;;;2.77;;
64799;SDS011;51233;51.982;4.594;2023-08-06T00:50:48;6.80;;;3.15;;
64799;SDS011;51233;51.982;4.594;2023-08-06T00:53:49;4.40;;;2.73;;
64799;SDS011;51233;51.982;4.594;2023-08-06T00:56:49;3.00;;;2.60;;
64799;SDS011;51233;51.982;4.594;2023-08-06T00:59:49;3.03;;;2.80;;
64799;SDS011;51233;51.982;4.594;2023-08-06T01:02:49;3.47;;;3.17;;
64799;SDS011;51233;51.982;4.594;2023-08-06T01:05:50;3.73;;;3.40;;
64799;SDS011;51233;51.982;4.594;2023-08-06T01:08:58;3.53;;;3.33;;
64799;SDS011;51233;51.982;4.594;2023-08-06T01:12:18;3.08;;;2.78;;
64799;SDS011;51233;51.982;4.594;2023-08-06T01:15:34;3.40;;;3.10;;
64799;SDS011;51233;51.982;4.594;2023-08-06T01:18:35;3.30;;;3.10;;
64799;SDS011;51233;51.982;4.594;2023-08-06T01:21:37;3.00;;;2.80;;
64799;SDS011;51233;51.982;4.594;2023-08-06T01:24:37;3.50;;;3.07;;
64799;SDS011;51233;51.982;4.594;2023-08-06T01:27:47;3.33;;;3.13;;
64799;SDS011;51233;51.982;4.594;2023-08-06T01:30:48;5.40;;;3.33;;
64799;SDS011;51233;51.982;4.594;2023-08-06T01:33:50;3.53;;;3.28;;
64799;SDS011;51233;51.982;4.594;2023-08-06T01:36:53;2.70;;;2.50;;
64799;SDS011;51233;51.982;4.594;2023-08-06T01:39:53;3.75;;;3.28;;
64799;SDS011;51233;51.982;4.594;2023-08-06T01:42:54;3.43;;;3.10;;
64799;SDS011;51233;51.982;4.594;2023-08-06T01:45:54;3.83;;;3.57;;
64799;SDS011;51233;51.982;4.594;2023-08-06T01:48:54;3.58;;;3.15;;
64799;SDS011;51233;51.982;4.594;2023-08-06T01:51:54;2.73;;;2.53;;
64799;SDS011;51233;51.982;4.594;2023-08-06T01:54:55;3.90;;;3.60;;
64799;SDS011;51233;51.982;4.594;2023-08-06T01:57:55;2.03;;;1.93;;
64799;SDS011;51233;51.982;4.594;2023-08-06T02:00:55;1.35;;;1.30;;
64799;SDS011;51233;51.982;4.594;2023-08-06T02:03:55;2.50;;;2.30;;
64799;SDS011;51233;51.982;4.594;2023-08-06T02:06:55;4.27;;;2.97;;
64799;SDS011;51233;51.982;4.594;2023-08-06T02:09:56;3.90;;;3.53;;
64799;SDS011;51233;51.982;4.594;2023-08-06T02:12:56;3.70;;;3.37;;
64799;SDS011;51233;51.982;4.594;2023-08-06T02:15:56;4.67;;;3.30;;
64799;SDS011;51233;51.982;4.594;2023-08-06T02:18:56;2.90;;;2.70;;
64799;SDS011;51233;51.982;4.594;2023-08-06T02:21:56;4.50;;;3.30;;
64799;SDS011;51233;51.982;4.594;2023-08-06T02:24:57;1.97;;;1.80;;
64799;SDS011;51233;51.982;4.594;2023-08-06T02:28:00;3.73;;;3.43;;
64799;SDS011;51233;51.982;4.594;2023-08-06T02:31:00;1.70;;;1.60;;
64799;SDS011;51233;51.982;4.594;2023-08-06T02:34:00;1.60;;;1.50;;
64799;SDS011;51233;51.982;4.594;2023-08-06T02:37:00;1.70;;;1.60;;
64799;SDS011;51233;51.982;4.594;2023-08-06T02:40:01;0.80;;;0.80;;
64799;SDS011;51233;51.982;4.594;2023-08-06T02:43:01;1.20;;;1.20;;
64799;SDS011;51233;51.982;4.594;2023-08-06T02:46:01;2.65;;;2.45;;
64799;SDS011;51233;51.982;4.594;2023-08-06T02:49:01;1.57;;;1.47;;
64799;SDS011;51233;51.982;4.594;2023-08-06T02:52:02;2.33;;;2.23;;
64799;SDS011;51233;51.982;4.594;2023-08-06T02:55:02;1.33;;;0.63;;
64799;SDS011;51233;51.982;4.594;2023-08-06T02:58:02;1.90;;;1.80;;
64799;SDS011;51233;51.982;4.594;2023-08-06T03:01:03;0.80;;;0.80;;
64799;SDS011;51233;51.982;4.594;2023-08-06T03:04:04;0.98;;;0.98;;
64799;SDS011;51233;51.982;4.594;2023-08-06T03:07:04;2.00;;;1.90;;
64799;SDS011;51233;51.982;4.594;2023-08-06T03:10:04;2.30;;;2.20;;
64799;SDS011;51233;51.982;4.594;2023-08-06T03:13:05;1.37;;;1.33;;
64799;SDS011;51233;51.982;4.594;2023-08-06T03:16:08;2.00;;;1.90;;
64799;SDS011;51233;51.982;4.594;2023-08-06T03:19:08;3.97;;;3.60;;
64799;SDS011;51233;51.982;4.594;2023-08-06T03:22:08;1.30;;;1.30;;
64799;SDS011;51233;51.982;4.594;2023-08-06T03:25:08;2.10;;;1.93;;
64799;SDS011;51233;51.982;4.594;2023-08-06T03:28:09;2.00;;;1.90;;
64799;SDS011;51233;51.982;4.594;2023-08-06T03:31:12;2.03;;;1.00;;
64799;SDS011;51233;51.982;4.594;2023-08-06T03:34:12;0.52;;;0.52;;
64799;SDS011;51233;51.982;4.594;2023-08-06T03:37:12;0.80;;;0.80;;
64799;SDS011;51233;51.982;4.594;2023-08-06T03:40:34;0.68;;;0.68;;
64799;SDS011;51233;51.982;4.594;2023-08-06T03:43:35;1.17;;;0.88;;
64799;SDS011;51233;51.982;4.594;2023-08-06T03:46:35;1.00;;;0.98;;
64799;SDS011;51233;51.982;4.594;2023-08-06T03:49:35;0.90;;;0.90;;
64799;SDS011;51233;51.982;4.594;2023-08-06T03:52:35;0.80;;;0.80;;
64799;SDS011;51233;51.982;4.594;2023-08-06T03:55:36;1.13;;;1.13;;
64799;SDS011;51233;51.982;4.594;2023-08-06T03:58:36;1.13;;;1.13;;
64799;SDS011;51233;51.982;4.594;2023-08-06T04:01:36;0.80;;;0.80;;
64799;SDS011;51233;51.982;4.594;2023-08-06T04:04:36;1.03;;;1.03;;
64799;SDS011;51233;51.982;4.594;2023-08-06T04:07:36;1.30;;;1.30;;
64799;SDS011;51233;51.982;4.594;2023-08-06T04:10:37;1.10;;;1.10;;
64799;SDS011;51233;51.982;4.594;2023-08-06T04:13:37;1.03;;;0.90;;
64799;SDS011;51233;51.982;4.594;2023-08-06T04:16:37;0.80;;;0.80;;
64799;SDS011;51233;51.982;4.594;2023-08-06T04:19:37;1.13;;;1.13;;
64799;SDS011;51233;51.982;4.594;2023-08-06T04:22:37;0.70;;;0.70;;
64799;SDS011;51233;51.982;4.594;2023-08-06T04:25:38;1.70;;;0.97;;
64799;SDS011;51233;51.982;4.594;2023-08-06T04:28:38;1.00;;;0.90;;
64799;SDS011;51233;51.982;4.594;2023-08-06T04:31:38;0.90;;;0.90;;
64799;SDS011;51233;51.982;4.594;2023-08-06T04:34:41;0.55;;;0.55;;
64799;SDS011;51233;51.982;4.594;2023-08-06T04:37:42;0.60;;;0.60;;
64799;SDS011;51233;51.982;4.594;2023-08-06T04:40:42;1.80;;;1.00;;
64799;SDS011;51233;51.982;4.594;2023-08-06T04:43:42;0.63;;;0.63;;
64799;SDS011;51233;51.982;4.594;2023-08-06T04:46:45;0.75;;;0.75;;
64799;SDS011;51233;51.982;4.594;2023-08-06T04:49:45;1.00;;;0.90;;
64799;SDS011;51233;51.982;4.594;2023-08-06T04:52:45;1.67;;;1.37;;
64799;SDS011;51233;51.982;4.594;2023-08-06T04:55:45;0.90;;;0.90;;
64799;SDS011;51233;51.982;4.594;2023-08-06T04:58:46;2.10;;;1.03;;
64799;SDS011;51233;51.982;4.594;2023-08-06T05:01:46;1.90;;;1.20;;
64799;SDS011;51233;51.982;4.594;2023-08-06T05:04:46;0.70;;;0.70;;
64799;SDS011;51233;51.982;4.594;2023-08-06T05:07:49;1.30;;;1.20;;
64799;SDS011;51233;51.982;4.594;2023-08-06T05:10:49;1.30;;;1.20;;
64799;SDS011;51233;51.982;4.594;2023-08-06T05:13:49;0.80;;;0.80;;
64799;SDS011;51233;51.982;4.594;2023-08-06T05:16:50;1.23;;;1.13;;
64799;SDS011;51233;51.982;4.594;2023-08-06T05:19:50;1.50;;;1.40;;
64799;SDS011;51233;51.982;4.594;2023-08-06T05:22:50;1.70;;;1.17;;
64799;SDS011;51233;51.982;4.594;2023-08-06T05:25:51;2.70;;;1.70;;
64799;SDS011;51233;51.982;4.594;2023-08-06T05:28:51;1.20;;;1.03;;
64799;SDS011;51233;51.982;4.594;2023-08-06T05:31:51;0.80;;;0.80;;
64799;SDS011;51233;51.982;4.594;2023-08-06T05:34:51;3.67;;;1.75;;
64799;SDS011;51233;51.982;4.594;2023-08-06T05:37:52;3.53;;;1.85;;
64799;SDS011;51233;51.982;4.594;2023-08-06T05:40:52;1.00;;;1.00;;
64799;SDS011;51233;51.982;4.594;2023-08-06T05:43:53;1.00;;;1.00;;
64799;SDS011;51233;51.982;4.594;2023-08-06T05:46:53;1.50;;;1.30;;
64799;SDS011;51233;51.982;4.594;2023-08-06T05:49:53;4.40;;;1.97;;
64799;SDS011;51233;51.982;4.594;2023-08-06T05:52:53;2.47;;;2.23;;
64799;SDS011;51233;51.982;4.594;2023-08-06T05:55:53;6.00;;;1.83;;
64799;SDS011;51233;51.982;4.594;2023-08-06T05:58:54;1.57;;;1.40;;
64799;SDS011;51233;51.982;4.594;2023-08-06T06:01:54;0.50;;;0.50;;
64799;SDS011;51233;51.982;4.594;2023-08-06T06:04:54;2.63;;;1.60;;
64799;SDS011;51233;51.982;4.594;2023-08-06T06:07:54;2.40;;;1.67;;
64799;SDS011;51233;51.982;4.594;2023-08-06T06:10:55;3.47;;;1.67;;
64799;SDS011;51233;51.982;4.594;2023-08-06T06:13:55;3.47;;;1.73;;
64799;SDS011;51233;51.982;4.594;2023-08-06T06:16:55;0.80;;;0.80;;
64799;SDS011;51233;51.982;4.594;2023-08-06T06:19:55;4.50;;;1.80;;
64799;SDS011;51233;51.982;4.594;2023-08-06T06:22:55;1.50;;;0.83;;
64799;SDS011;51233;51.982;4.594;2023-08-06T06:25:56;0.95;;;0.90;;
64799;SDS011;51233;51.982;4.594;2023-08-06T06:28:56;1.43;;;1.10;;
64799;SDS011;51233;51.982;4.594;2023-08-06T06:31:56;2.50;;;1.20;;
64799;SDS011;51233;51.982;4.594;2023-08-06T06:34:56;3.40;;;1.33;;
64799;SDS011;51233;51.982;4.594;2023-08-06T06:37:56;3.03;;;1.40;;
64799;SDS011;51233;51.982;4.594;2023-08-06T06:40:57;3.30;;;1.50;;
64799;SDS011;51233;51.982;4.594;2023-08-06T06:43:58;4.37;;;1.20;;
64799;SDS011;51233;51.982;4.594;2023-08-06T06:46:58;1.30;;;0.97;;
64799;SDS011;51233;51.982;4.594;2023-08-06T06:49:58;0.63;;;0.63;;
64799;SDS011;51233;51.982;4.594;2023-08-06T06:52:58;0.83;;;0.80;;
64799;SDS011;51233;51.982;4.594;2023-08-06T06:56:02;2.60;;;0.80;;
64799;SDS011;51233;51.982;4.594;2023-08-06T06:59:02;3.08;;;1.00;;
64799;SDS011;51233;51.982;4.594;2023-08-06T07:02:03;1.00;;;0.93;;
64799;SDS011;51233;51.982;4.594;2023-08-06T07:05:03;3.83;;;1.20;;
64799;SDS011;51233;51.982;4.594;2023-08-06T07:08:03;0.83;;;0.83;;
64799;SDS011;51233;51.982;4.594;2023-08-06T07:11:05;0.70;;;0.70;;
64799;SDS011;51233;51.982;4.594;2023-08-06T07:14:05;1.58;;;0.70;;
64799;SDS011;51233;51.982;4.594;2023-08-06T07:17:05;2.43;;;1.07;;
64799;SDS011;51233;51.982;4.594;2023-08-06T07:20:06;2.37;;;0.77;;
64799;SDS011;51233;51.982;4.594;2023-08-06T07:23:25;1.10;;;1.02;;
64799;SDS011;51233;51.982;4.594;2023-08-06T07:26:25;1.90;;;1.30;;
64799;SDS011;51233;51.982;4.594;2023-08-06T07:29:25;4.87;;;1.10;;
64799;SDS011;51233;51.982;4.594;2023-08-06T07:32:26;2.30;;;1.10;;
64799;SDS011;51233;51.982;4.594;2023-08-06T07:38:28;2.45;;;0.65;;
64799;SDS011;51233;51.982;4.594;2023-08-06T07:41:29;1.30;;;1.08;;
64799;SDS011;51233;51.982;4.594;2023-08-06T07:44:30;1.10;;;1.00;;
64799;SDS011;51233;51.982;4.594;2023-08-06T07:47:30;0.70;;;0.70;;
64799;SDS011;51233;51.982;4.594;2023-08-06T07:50:30;3.17;;;1.57;;
64799;SDS011;51233;51.982;4.594;2023-08-06T07:53:33;3.95;;;1.50;;
64799;SDS011;51233;51.982;4.594;2023-08-06T07:56:36;0.80;;;0.80;;
64799;SDS011;51233;51.982;4.594;2023-08-06T07:59:36;2.50;;;1.50;;
64799;SDS011;51233;51.982;4.594;2023-08-06T08:02:39;1.73;;;1.35;;
64799;SDS011;51233;51.982;4.594;2023-08-06T08:05:40;1.30;;;1.20;;
64799;SDS011;51233;51.982;4.594;2023-08-06T08:08:40;0.90;;;0.73;;
64799;SDS011;51233;51.982;4.594;2023-08-06T08:11:43;3.53;;;1.60;;
64799;SDS011;51233;51.982;4.594;2023-08-06T08:14:44;2.40;;;1.33;;
64799;SDS011;51233;51.982;4.594;2023-08-06T08:17:45;1.30;;;0.85;;
64799;SDS011;51233;51.982;4.594;2023-08-06T08:20:47;2.78;;;1.33;;
64799;SDS011;51233;51.982;4.594;2023-08-06T08:23:48;2.40;;;1.42;;
64799;SDS011;51233;51.982;4.594;2023-08-06T08:26:48;2.20;;;1.37;;
64799;SDS011;51233;51.982;4.594;2023-08-06T08:29:48;1.83;;;1.33;;
64799;SDS011;51233;51.982;4.594;2023-08-06T08:32:48;1.13;;;0.83;;
64799;SDS011;51233;51.982;4.594;2023-08-06T08:35:49;3.70;;;1.50;;
64799;SDS011;51233;51.982;4.594;2023-08-06T08:38:49;3.27;;;1.40;;
64799;SDS011;51233;51.982;4.594;2023-08-06T08:41:53;2.92;;;1.15;;
64799;SDS011;51233;51.982;4.594;2023-08-06T08:44:56;2.58;;;1.10;;
64799;SDS011;51233;51.982;4.594;2023-08-06T08:47:57;3.90;;;1.60;;
64799;SDS011;51233;51.982;4.594;2023-08-06T08:50:57;2.10;;;1.10;;
64799;SDS011;51233;51.982;4.594;2023-08-06T08:53:58;1.23;;;1.13;;
64799;SDS011;51233;51.982;4.594;2023-08-06T08:56:58;2.10;;;1.30;;
64799;SDS011;51233;51.982;4.594;2023-08-06T08:59:58;2.17;;;1.30;;
64799;SDS011;51233;51.982;4.594;2023-08-06T09:02:58;2.90;;;1.17;;
64799;SDS011;51233;51.982;4.594;2023-08-06T09:05:58;3.80;;;1.20;;
64799;SDS011;51233;51.982;4.594;2023-08-06T09:09:10;1.20;;;1.13;;
64799;SDS011;51233;51.982;4.594;2023-08-06T09:15:11;1.05;;;1.05;;
64799;SDS011;51233;51.982;4.594;2023-08-06T09:18:15;2.50;;;1.60;;
64799;SDS011;51233;51.982;4.594;2023-08-06T09:21:17;1.73;;;1.35;;
64799;SDS011;51233;51.982;4.594;2023-08-06T09:24:17;2.47;;;1.30;;
64799;SDS011;51233;51.982;4.594;2023-08-06T09:27:18;0.70;;;0.70;;
64799;SDS011;51233;51.982;4.594;2023-08-06T09:30:31;2.10;;;1.33;;
64799;SDS011;51233;51.982;4.594;2023-08-06T09:33:31;1.95;;;1.25;;
64799;SDS011;51233;51.982;4.594;2023-08-06T09:36:31;2.43;;;1.40;;
64799;SDS011;51233;51.982;4.594;2023-08-06T09:39:32;1.85;;;1.20;;
64799;SDS011;51233;51.982;4.594;2023-08-06T09:42:32;5.15;;;1.30;;
64799;SDS011;51233;51.982;4.594;2023-08-06T09:45:41;1.40;;;1.30;;
64799;SDS011;51233;51.982;4.594;2023-08-06T09:48:48;2.28;;;1.27;;
64799;SDS011;51233;51.982;4.594;2023-08-06T09:51:50;6.25;;;1.10;;
64799;SDS011;51233;51.982;4.594;2023-08-06T09:57:52;1.23;;;1.00;;
64799;SDS011;51233;51.982;4.594;2023-08-06T10:00:52;1.43;;;1.17;;
64799;SDS011;51233;51.982;4.594;2023-08-06T10:03:53;0.80;;;0.77;;
64799;SDS011;51233;51.982;4.594;2023-08-06T10:06:53;1.87;;;1.40;;
64799;SDS011;51233;51.982;4.594;2023-08-06T10:09:54;0.90;;;0.90;;
64799;SDS011;51233;51.982;4.594;2023-08-06T10:12:55;1.90;;;1.13;;
64799;SDS011;51233;51.982;4.594;2023-08-06T10:15:56;1.10;;;0.93;;
64799;SDS011;51233;51.982;4.594;2023-08-06T10:18:57;2.27;;;0.83;;
64799;SDS011;51233;51.982;4.594;2023-08-06T10:22:10;0.97;;;0.87;;
64799;SDS011;51233;51.982;4.594;2023-08-06T10:25:16;1.73;;;0.80;;
64799;SDS011;51233;51.982;4.594;2023-08-06T10:28:16;0.93;;;0.90;;
64799;SDS011;51233;51.982;4.594;2023-08-06T10:31:20;5.22;;;1.10;;
64799;SDS011;51233;51.982;4.594;2023-08-06T10:34:20;3.20;;;1.20;;
64799;SDS011;51233;51.982;4.594;2023-08-06T10:37:20;1.10;;;0.90;;
64799;SDS011;51233;51.982;4.594;2023-08-06T10:40:22;0.93;;;0.90;;
64799;SDS011;51233;51.982;4.594;2023-08-06T10:43:33;0.93;;;0.90;;
64799;SDS011;51233;51.982;4.594;2023-08-06T10:46:34;1.50;;;0.90;;
64799;SDS011;51233;51.982;4.594;2023-08-06T10:49:34;1.13;;;0.97;;
64799;SDS011;51233;51.982;4.594;2023-08-06T10:52:34;2.60;;;1.23;;
64799;SDS011;51233;51.982;4.594;2023-08-06T10:55:34;1.40;;;0.87;;
64799;SDS011;51233;51.982;4.594;2023-08-06T10:58:35;1.10;;;1.00;;
64799;SDS011;51233;51.982;4.594;2023-08-06T11:01:35;1.13;;;1.10;;
64799;SDS011;51233;51.982;4.594;2023-08-06T11:04:35;1.23;;;0.90;;
64799;SDS011;51233;51.982;4.594;2023-08-06T11:07:36;1.20;;;0.80;;
64799;SDS011;51233;51.982;4.594;2023-08-06T11:10:39;1.50;;;1.40;;
64799;SDS011;51233;51.982;4.594;2023-08-06T11:13:46;2.58;;;1.13;;
64799;SDS011;51233;51.982;4.594;2023-08-06T11:16:47;6.38;;;1.00;;
64799;SDS011;51233;51.982;4.594;2023-08-06T11:19:50;1.85;;;0.82;;
64799;SDS011;51233;51.982;4.594;2023-08-06T11:22:50;1.57;;;1.27;;
64799;SDS011;51233;51.982;4.594;2023-08-06T11:25:50;6.82;;;1.30;;
64799;SDS011;51233;51.982;4.594;2023-08-06T11:28:51;2.33;;;0.60;;
64799;SDS011;51233;51.982;4.594;2023-08-06T11:31:51;1.20;;;1.10;;
64799;SDS011;51233;51.982;4.594;2023-08-06T11:34:52;2.03;;;1.30;;
64799;SDS011;51233;51.982;4.594;2023-08-06T11:37:52;1.17;;;1.00;;
64799;SDS011;51233;51.982;4.594;2023-08-06T11:40:53;0.80;;;0.80;;
64799;SDS011;51233;51.982;4.594;2023-08-06T11:43:56;1.55;;;0.85;;
64799;SDS011;51233;51.982;4.594;2023-08-06T11:46:57;1.23;;;1.13;;
64799;SDS011;51233;51.982;4.594;2023-08-06T11:49:59;1.63;;;1.05;;
64799;SDS011;51233;51.982;4.594;2023-08-06T11:52:59;3.37;;;1.00;;
64799;SDS011;51233;51.982;4.594;2023-08-06T11:56:00;1.40;;;0.87;;
64799;SDS011;51233;51.982;4.594;2023-08-06T11:59:00;1.03;;;0.80;;
64799;SDS011;51233;51.982;4.594;2023-08-06T12:02:02;0.70;;;0.70;;
64799;SDS011;51233;51.982;4.594;2023-08-06T12:05:03;0.85;;;0.70;;
64799;SDS011;51233;51.982;4.594;2023-08-06T12:08:08;1.10;;;0.80;;
64799;SDS011;51233;51.982;4.594;2023-08-06T12:14:11;1.45;;;0.68;;
64799;SDS011;51233;51.982;4.594;2023-08-06T12:17:15;1.00;;;1.00;;
64799;SDS011;51233;51.982;4.594;2023-08-06T12:20:15;0.97;;;0.70;;
64799;SDS011;51233;51.982;4.594;2023-08-06T12:23:15;1.27;;;0.80;;
64799;SDS011;51233;51.982;4.594;2023-08-06T12:26:18;1.03;;;0.83;;
64799;SDS011;51233;51.982;4.594;2023-08-06T12:29:18;2.47;;;0.90;;
64799;SDS011;51233;51.982;4.594;2023-08-06T12:32:19;0.70;;;0.60;;
64799;SDS011;51233;51.982;4.594;2023-08-06T12:35:19;0.70;;;0.70;;
64799;SDS011;51233;51.982;4.594;2023-08-06T12:38:20;0.43;;;0.43;;
64799;SDS011;51233;51.982;4.594;2023-08-06T12:41:20;1.00;;;0.90;;
64799;SDS011;51233;51.982;4.594;2023-08-06T12:44:21;1.33;;;1.20;;
64799;SDS011;51233;51.982;4.594;2023-08-06T12:47:21;0.60;;;0.60;;
64799;SDS011;51233;51.982;4.594;2023-08-06T12:50:21;1.00;;;0.50;;
64799;SDS011;51233;51.982;4.594;2023-08-06T12:53:21;0.70;;;0.50;;
64799;SDS011;51233;51.982;4.594;2023-08-06T12:56:23;0.40;;;0.40;;
64799;SDS011;51233;51.982;4.594;2023-08-06T12:59:23;0.63;;;0.60;;
64799;SDS011;51233;51.982;4.594;2023-08-06T13:02:23;1.63;;;0.70;;
64799;SDS011;51233;51.982;4.594;2023-08-06T13:05:24;1.77;;;0.60;;
64799;SDS011;51233;51.982;4.594;2023-08-06T13:08:24;0.70;;;0.70;;
64799;SDS011;51233;51.982;4.594;2023-08-06T13:11:24;0.93;;;0.90;;
64799;SDS011;51233;51.982;4.594;2023-08-06T13:14:24;0.70;;;0.70;;
64799;SDS011;51233;51.982;4.594;2023-08-06T13:17:24;1.60;;;0.87;;
64799;SDS011;51233;51.982;4.594;2023-08-06T13:20:25;0.80;;;0.55;;
64799;SDS011;51233;51.982;4.594;2023-08-06T13:23:25;0.37;;;0.37;;
64799;SDS011;51233;51.982;4.594;2023-08-06T13:26:25;0.70;;;0.70;;
64799;SDS011;51233;51.982;4.594;2023-08-06T13:29:25;1.92;;;0.85;;
64799;SDS011;51233;51.982;4.594;2023-08-06T13:32:27;1.27;;;0.70;;
64799;SDS011;51233;51.982;4.594;2023-08-06T13:35:27;0.80;;;0.80;;
64799;SDS011;51233;51.982;4.594;2023-08-06T13:38:27;1.10;;;0.80;;
64799;SDS011;51233;51.982;4.594;2023-08-06T13:41:27;1.07;;;0.70;;
64799;SDS011;51233;51.982;4.594;2023-08-06T13:44:27;6.90;;;1.00;;
64799;SDS011;51233;51.982;4.594;2023-08-06T13:47:28;1.92;;;1.05;;
64799;SDS011;51233;51.982;4.594;2023-08-06T13:50:32;2.17;;;1.10;;
64799;SDS011;51233;51.982;4.594;2023-08-06T13:53:32;0.73;;;0.73;;
64799;SDS011;51233;51.982;4.594;2023-08-06T13:56:33;2.47;;;1.20;;
64799;SDS011;51233;51.982;4.594;2023-08-06T13:59:33;3.43;;;0.97;;
64799;SDS011;51233;51.982;4.594;2023-08-06T14:02:33;1.25;;;0.68;;
64799;SDS011;51233;51.982;4.594;2023-08-06T14:05:33;6.00;;;0.90;;
64799;SDS011;51233;51.982;4.594;2023-08-06T14:08:34;1.45;;;1.05;;
64799;SDS011;51233;51.982;4.594;2023-08-06T14:11:37;1.63;;;1.20;;
64799;SDS011;51233;51.982;4.594;2023-08-06T14:14:37;0.93;;;0.93;;
64799;SDS011;51233;51.982;4.594;2023-08-06T14:17:37;1.73;;;0.80;;
64799;SDS011;51233;51.982;4.594;2023-08-06T14:20:38;0.70;;;0.70;;
64799;SDS011;51233;51.982;4.594;2023-08-06T14:23:38;1.30;;;1.20;;
64799;SDS011;51233;51.982;4.594;2023-08-06T14:26:38;0.60;;;0.60;;
64799;SDS011;51233;51.982;4.594;2023-08-06T14:29:38;0.80;;;0.80;;
64799;SDS011;51233;51.982;4.594;2023-08-06T14:32:38;1.88;;;0.95;;
64799;SDS011;51233;51.982;4.594;2023-08-06T14:35:39;0.63;;;0.60;;
64799;SDS011;51233;51.982;4.594;2023-08-06T14:38:39;1.37;;;0.60;;
64799;SDS011;51233;51.982;4.594;2023-08-06T14:41:42;3.28;;;0.95;;
64799;SDS011;51233;51.982;4.594;2023-08-06T14:44:42;0.57;;;0.57;;
64799;SDS011;51233;51.982;4.594;2023-08-06T14:47:43;0.60;;;0.60;;
64799;SDS011;51233;51.982;4.594;2023-08-06T14:50:43;1.93;;;0.93;;
64799;SDS011;51233;51.982;4.594;2023-08-06T14:53:44;0.80;;;0.80;;
64799;SDS011;51233;51.982;4.594;2023-08-06T14:56:44;1.07;;;0.90;;
64799;SDS011;51233;51.982;4.594;2023-08-06T14:59:44;2.50;;;0.73;;
64799;SDS011;51233;51.982;4.594;2023-08-06T15:02:47;1.95;;;0.90;;
64799;SDS011;51233;51.982;4.594;2023-08-06T15:05:48;4.53;;;1.07;;
64799;SDS011;51233;51.982;4.594;2023-08-06T15:08:48;1.77;;;0.50;;
64799;SDS011;51233;51.982;4.594;2023-08-06T15:11:49;4.10;;;1.10;;
64799;SDS011;51233;51.982;4.594;2023-08-06T15:14:52;1.10;;;0.73;;
64799;SDS011;51233;51.982;4.594;2023-08-06T15:17:56;2.72;;;1.13;;
64799;SDS011;51233;51.982;4.594;2023-08-06T15:20:57;3.73;;;0.90;;
64799;SDS011;51233;51.982;4.594;2023-08-06T15:23:57;2.70;;;1.00;;
64799;SDS011;51233;51.982;4.594;2023-08-06T15:26:58;3.80;;;1.30;;
64799;SDS011;51233;51.982;4.594;2023-08-06T15:29:58;3.72;;;1.60;;
64799;SDS011;51233;51.982;4.594;2023-08-06T15:32:58;2.07;;;0.80;;
64799;SDS011;51233;51.982;4.594;2023-08-06T15:35:58;5.37;;;1.47;;
64799;SDS011;51233;51.982;4.594;2023-08-06T15:38:58;3.45;;;1.60;;
64799;SDS011;51233;51.982;4.594;2023-08-06T15:41:59;2.30;;;1.03;;
64799;SDS011;51233;51.982;4.594;2023-08-06T15:44:59;2.10;;;0.83;;
64799;SDS011;51233;51.982;4.594;2023-08-06T15:47:59;5.03;;;1.47;;
64799;SDS011;51233;51.982;4.594;2023-08-06T15:50:59;9.00;;;1.97;;
64799;SDS011;51233;51.982;4.594;2023-08-06T15:53:59;2.90;;;1.07;;
64799;SDS011;51233;51.982;4.594;2023-08-06T15:57:00;9.30;;;1.20;;
64799;SDS011;51233;51.982;4.594;2023-08-06T16:00:00;0.83;;;0.50;;
64799;SDS011;51233;51.982;4.594;2023-08-06T16:03:04;0.60;;;0.60;;
64799;SDS011;51233;51.982;4.594;2023-08-06T16:06:04;7.22;;;1.95;;
64799;SDS011;51233;51.982;4.594;2023-08-06T16:09:04;14.65;;;2.30;;
64799;SDS011;51233;51.982;4.594;2023-08-06T16:12:04;2.43;;;0.90;;
64799;SDS011;51233;51.982;4.594;2023-08-06T16:15:05;10.70;;;1.90;;
64799;SDS011;51233;51.982;4.594;2023-08-06T16:18:05;5.83;;;1.70;;
64799;SDS011;51233;51.982;4.594;2023-08-06T16:21:05;4.80;;;1.90;;
64799;SDS011;51233;51.982;4.594;2023-08-06T16:24:09;0.77;;;0.47;;
64799;SDS011;51233;51.982;4.594;2023-08-06T16:27:09;0.63;;;0.40;;
64799;SDS011;51233;51.982;4.594;2023-08-06T16:30:09;6.60;;;1.50;;
64799;SDS011;51233;51.982;4.594;2023-08-06T16:33:10;3.70;;;1.57;;
64799;SDS011;51233;51.982;4.594;2023-08-06T16:36:10;5.23;;;1.30;;
64799;SDS011;51233;51.982;4.594;2023-08-06T16:39:13;3.67;;;1.07;;
64799;SDS011;51233;51.982;4.594;2023-08-06T16:42:13;3.45;;;1.58;;
64799;SDS011;51233;51.982;4.594;2023-08-06T16:45:14;3.87;;;0.90;;
64799;SDS011;51233;51.982;4.594;2023-08-06T16:48:14;2.17;;;0.97;;
64799;SDS011;51233;51.982;4.594;2023-08-06T16:51:14;5.50;;;0.97;;
64799;SDS011;51233;51.982;4.594;2023-08-06T16:54:16;3.13;;;1.13;;
64799;SDS011;51233;51.982;4.594;2023-08-06T16:57:16;3.30;;;1.07;;
64799;SDS011;51233;51.982;4.594;2023-08-06T17:00:16;3.90;;;1.13;;
64799;SDS011;51233;51.982;4.594;2023-08-06T17:03:17;1.40;;;0.80;;
64799;SDS011;51233;51.982;4.594;2023-08-06T17:06:17;1.60;;;0.67;;
64799;SDS011;51233;51.982;4.594;2023-08-06T17:09:17;4.43;;;1.23;;
64799;SDS011;51233;51.982;4.594;2023-08-06T17:12:20;5.80;;;1.53;;
64799;SDS011;51233;51.982;4.594;2023-08-06T17:15:21;4.50;;;1.27;;
64799;SDS011;51233;51.982;4.594;2023-08-06T17:18:22;8.57;;;1.67;;
64799;SDS011;51233;51.982;4.594;2023-08-06T17:21:22;1.70;;;1.00;;
64799;SDS011;51233;51.982;4.594;2023-08-06T17:24:25;8.63;;;1.90;;
64799;SDS011;51233;51.982;4.594;2023-08-06T17:27:25;3.60;;;1.20;;
64799;SDS011;51233;51.982;4.594;2023-08-06T17:30:25;2.43;;;1.30;;
64799;SDS011;51233;51.982;4.594;2023-08-06T17:33:26;5.00;;;1.37;;
64799;SDS011;51233;51.982;4.594;2023-08-06T17:36:26;3.87;;;1.07;;
64799;SDS011;51233;51.982;4.594;2023-08-06T17:39:26;1.83;;;0.82;;
64799;SDS011;51233;51.982;4.594;2023-08-06T17:42:26;6.47;;;1.30;;
64799;SDS011;51233;51.982;4.594;2023-08-06T17:45:26;2.23;;;0.90;;
64799;SDS011;51233;51.982;4.594;2023-08-06T17:48:27;1.60;;;0.60;;
64799;SDS011;51233;51.982;4.594;2023-08-06T17:51:30;2.53;;;0.65;;
64799;SDS011;51233;51.982;4.594;2023-08-06T17:54:30;3.60;;;0.98;;
64799;SDS011;51233;51.982;4.594;2023-08-06T17:57:33;5.90;;;1.40;;
64799;SDS011;51233;51.982;4.594;2023-08-06T18:00:33;1.73;;;0.87;;
64799;SDS011;51233;51.982;4.594;2023-08-06T18:03:34;1.80;;;1.03;;
64799;SDS011;51233;51.982;4.594;2023-08-06T18:06:34;1.17;;;1.00;;
64799;SDS011;51233;51.982;4.594;2023-08-06T18:09:34;2.23;;;0.77;;
64799;SDS011;51233;51.982;4.594;2023-08-06T18:12:34;3.20;;;0.93;;
64799;SDS011;51233;51.982;4.594;2023-08-06T18:15:36;1.48;;;0.68;;
64799;SDS011;51233;51.982;4.594;2023-08-06T18:18:39;6.43;;;1.57;;
64799;SDS011;51233;51.982;4.594;2023-08-06T18:21:39;5.65;;;1.20;;
64799;SDS011;51233;51.982;4.594;2023-08-06T18:24:40;1.13;;;0.77;;